sensor_id;sensor_type;location;lat;lon;timestamp;pressure;altitude;pressure_sealevel;temperature;humidity
54806;BME280;62866;55.776;37.496;2022-11-28T00:02:07;101758.22;;;-3.29;93.31
54806;BME280;62866;55.776;37.496;2022-11-28T00:04:33;101762.72;;;-3.34;93.35
54806;BME280;62866;55.776;37.496;2022-11-28T00:06:58;101761.50;;;-3.24;93.41
54806;BME280;62866;55.776;37.496;2022-11-28T00:09:23;101764.03;;;-3.21;92.53
54806;BME280;62866;55.776;37.496;2022-11-28T00:11:49;101752.66;;;-3.20;92.71
54806;BME280;62866;55.776;37.496;2022-11-28T00:14:15;101757.91;;;-3.20;92.69
54806;BME280;62866;55.776;37.496;2022-11-28T00:16:41;101758.84;;;-3.22;93.09
54806;BME280;62866;55.776;37.496;2022-11-28T00:19:07;101756.81;;;-3.14;92.32
54806;BME280;62866;55.776;37.496;2022-11-28T00:21:32;101757.00;;;-3.19;92.57
54806;BME280;62866;55.776;37.496;2022-11-28T00:23:58;101747.31;;;-3.17;92.84
54806;BME280;62866;55.776;37.496;2022-11-28T00:26:27;101755.81;;;-3.10;92.84
54806;BME280;62866;55.776;37.496;2022-11-28T00:28:54;101753.38;;;-3.16;92.05
54806;BME280;62866;55.776;37.496;2022-11-28T00:31:21;101756.75;;;-3.13;92.63
54806;BME280;62866;55.776;37.496;2022-11-28T00:33:47;101749.81;;;-3.14;92.60
54806;BME280;62866;55.776;37.496;2022-11-28T00:36:13;101749.78;;;-3.12;92.59
54806;BME280;62866;55.776;37.496;2022-11-28T00:38:38;101751.50;;;-3.11;92.45
54806;BME280;62866;55.776;37.496;2022-11-28T00:41:05;101750.72;;;-3.15;92.65
54806;BME280;62866;55.776;37.496;2022-11-28T00:43:31;101746.31;;;-3.13;92.36
54806;BME280;62866;55.776;37.496;2022-11-28T00:45:57;101747.97;;;-3.10;92.27
54806;BME280;62866;55.776;37.496;2022-11-28T00:48:23;101740.13;;;-3.10;92.31
54806;BME280;62866;55.776;37.496;2022-11-28T00:50:49;101746.34;;;-3.14;91.99
54806;BME280;62866;55.776;37.496;2022-11-28T00:53:14;101748.16;;;-3.16;92.27
54806;BME280;62866;55.776;37.496;2022-11-28T00:55:40;101745.44;;;-3.13;92.44
54806;BME280;62866;55.776;37.496;2022-11-28T00:58:05;101748.16;;;-3.16;93.06
54806;BME280;62866;55.776;37.496;2022-11-28T01:00:31;101745.66;;;-3.19;93.23
54806;BME280;62866;55.776;37.496;2022-11-28T01:02:57;101750.69;;;-3.13;93.21
54806;BME280;62866;55.776;37.496;2022-11-28T01:05:22;101746.41;;;-3.16;92.78
54806;BME280;62866;55.776;37.496;2022-11-28T01:07:47;101747.25;;;-3.15;93.31
54806;BME280;62866;55.776;37.496;2022-11-28T01:10:13;101745.59;;;-3.18;93.40
54806;BME280;62866;55.776;37.496;2022-11-28T01:12:38;101741.06;;;-3.13;93.22
54806;BME280;62866;55.776;37.496;2022-11-28T01:15:04;101742.94;;;-3.16;93.30
54806;BME280;62866;55.776;37.496;2022-11-28T01:17:30;101741.16;;;-3.16;93.21
54806;BME280;62866;55.776;37.496;2022-11-28T01:19:56;101743.72;;;-3.14;93.57
54806;BME280;62866;55.776;37.496;2022-11-28T01:22:21;101746.34;;;-3.14;93.36
54806;BME280;62866;55.776;37.496;2022-11-28T01:24:46;101745.50;;;-3.15;93.84
54806;BME280;62866;55.776;37.496;2022-11-28T01:27:12;101741.78;;;-3.09;93.86
54806;BME280;62866;55.776;37.496;2022-11-28T01:29:37;101737.31;;;-3.06;93.43
54806;BME280;62866;55.776;37.496;2022-11-28T01:32:02;101738.00;;;-3.00;93.68
54806;BME280;62866;55.776;37.496;2022-11-28T01:34:28;101745.25;;;-3.09;93.73
54806;BME280;62866;55.776;37.496;2022-11-28T01:36:53;101745.25;;;-3.09;93.98
54806;BME280;62866;55.776;37.496;2022-11-28T01:39:18;101737.22;;;-3.02;94.02
54806;BME280;62866;55.776;37.496;2022-11-28T01:41:44;101742.22;;;-2.96;93.36
54806;BME280;62866;55.776;37.496;2022-11-28T01:46:38;101751.94;;;-3.00;93.27
54806;BME280;62866;55.776;37.496;2022-11-28T01:49:06;101744.34;;;-2.83;92.68
54806;BME280;62866;55.776;37.496;2022-11-28T01:51:33;101749.97;;;-2.93;93.07
54806;BME280;62866;55.776;37.496;2022-11-28T01:53:59;101742.56;;;-3.06;92.47
54806;BME280;62866;55.776;37.496;2022-11-28T01:56:26;101744.25;;;-3.04;92.95
54806;BME280;62866;55.776;37.496;2022-11-28T01:58:54;101747.78;;;-3.06;93.59
54806;BME280;62866;55.776;37.496;2022-11-28T02:01:22;101745.25;;;-3.09;92.91
54806;BME280;62866;55.776;37.496;2022-11-28T02:03:48;101744.41;;;-3.09;93.49
54806;BME280;62866;55.776;37.496;2022-11-28T02:06:16;101746.75;;;-3.26;93.67
54806;BME280;62866;55.776;37.496;2022-11-28T02:08:42;101760.88;;;-3.30;93.45
54806;BME280;62866;55.776;37.496;2022-11-28T02:16:55;101759.72;;;-3.48;94.24
54806;BME280;62866;55.776;37.496;2022-11-28T02:22:20;101768.59;;;-3.52;94.54
54806;BME280;62866;55.776;37.496;2022-11-28T02:24:51;101777.44;;;-3.56;94.46
54806;BME280;62866;55.776;37.496;2022-11-28T02:32:28;101775.16;;;-3.40;94.48
54806;BME280;62866;55.776;37.496;2022-11-28T02:37:28;101780.03;;;-3.56;92.88
54806;BME280;62866;55.776;37.496;2022-11-28T02:45:17;101792.03;;;-3.51;93.26
54806;BME280;62866;55.776;37.496;2022-11-28T02:47:44;101787.59;;;-3.47;91.66
54806;BME280;62866;55.776;37.496;2022-11-28T02:50:23;101782.53;;;-3.52;90.86
54806;BME280;62866;55.776;37.496;2022-11-28T02:52:51;101797.13;;;-3.72;91.02
54806;BME280;62866;55.776;37.496;2022-11-28T02:55:17;101797.28;;;-3.77;90.65
54806;BME280;62866;55.776;37.496;2022-11-28T02:57:47;101795.09;;;-3.91;91.15
54806;BME280;62866;55.776;37.496;2022-11-28T03:00:46;101803.94;;;-3.95;90.90
54806;BME280;62866;55.776;37.496;2022-11-28T03:10:36;101801.41;;;-3.98;91.65
54806;BME280;62866;55.776;37.496;2022-11-28T03:18:26;101805.47;;;-3.88;90.50
54806;BME280;62866;55.776;37.496;2022-11-28T03:20:59;101806.59;;;-3.96;90.67
54806;BME280;62866;55.776;37.496;2022-11-28T03:23:27;101811.09;;;-4.01;90.21
54806;BME280;62866;55.776;37.496;2022-11-28T03:26:07;101810.16;;;-3.99;89.81
54806;BME280;62866;55.776;37.496;2022-11-28T03:28:36;101814.50;;;-3.99;89.94
54806;BME280;62866;55.776;37.496;2022-11-28T03:33:31;101822.50;;;-4.04;90.00
54806;BME280;62866;55.776;37.496;2022-11-28T03:35:59;101821.72;;;-4.07;89.98
54806;BME280;62866;55.776;37.496;2022-11-28T03:38:37;101818.84;;;-3.98;89.96
54806;BME280;62866;55.776;37.496;2022-11-28T03:41:07;101823.13;;;-3.96;89.53
54806;BME280;62866;55.776;37.496;2022-11-28T03:43:37;101826.47;;;-3.92;89.59
54806;BME280;62866;55.776;37.496;2022-11-28T03:46:06;101825.81;;;-3.99;89.38
54806;BME280;62866;55.776;37.496;2022-11-28T03:48:39;101825.53;;;-3.90;89.42
54806;BME280;62866;55.776;37.496;2022-11-28T03:51:07;101824.22;;;-4.03;89.44
54806;BME280;62866;55.776;37.496;2022-11-28T03:53:41;101833.91;;;-4.06;89.48
54806;BME280;62866;55.776;37.496;2022-11-28T03:56:10;101827.50;;;-3.96;89.87
54806;BME280;62866;55.776;37.496;2022-11-28T03:58:39;101836.31;;;-4.00;89.50
54806;BME280;62866;55.776;37.496;2022-11-28T04:03:53;101835.56;;;-4.04;90.18
54806;BME280;62866;55.776;37.496;2022-11-28T04:06:21;101838.16;;;-4.02;89.72
54806;BME280;62866;55.776;37.496;2022-11-28T04:09:06;101839.94;;;-4.04;89.98
54806;BME280;62866;55.776;37.496;2022-11-28T04:11:44;101846.03;;;-4.04;90.30
54806;BME280;62866;55.776;37.496;2022-11-28T04:16:42;101847.72;;;-4.03;89.81
54806;BME280;62866;55.776;37.496;2022-11-28T04:19:15;101845.19;;;-4.06;90.22
54806;BME280;62866;55.776;37.496;2022-11-28T04:24:30;101837.38;;;-4.06;89.74
54806;BME280;62866;55.776;37.496;2022-11-28T04:26:58;101841.50;;;-3.99;89.92
54806;BME280;62866;55.776;37.496;2022-11-28T04:29:25;101845.28;;;-4.09;89.31
54806;BME280;62866;55.776;37.496;2022-11-28T04:31:53;101849.00;;;-4.17;89.37
54806;BME280;62866;55.776;37.496;2022-11-28T04:34:20;101853.38;;;-4.18;89.86
54806;BME280;62866;55.776;37.496;2022-11-28T04:36:47;101837.22;;;-4.01;90.47
54806;BME280;62866;55.776;37.496;2022-11-28T04:39:15;101854.00;;;-4.10;90.00
54806;BME280;62866;55.776;37.496;2022-11-28T04:47:00;101854.38;;;-4.22;90.47
54806;BME280;62866;55.776;37.496;2022-11-28T04:49:26;101855.63;;;-4.04;90.27
54806;BME280;62866;55.776;37.496;2022-11-28T04:54:41;101865.50;;;-4.15;89.91
54806;BME280;62866;55.776;37.496;2022-11-28T04:57:34;101865.63;;;-4.18;90.13
54806;BME280;62866;55.776;37.496;2022-11-28T05:00:02;101871.00;;;-4.25;90.33
54806;BME280;62866;55.776;37.496;2022-11-28T05:02:28;101870.63;;;-4.11;89.85
54806;BME280;62866;55.776;37.496;2022-11-28T05:04:54;101875.03;;;-4.13;89.86
54806;BME280;62866;55.776;37.496;2022-11-28T05:07:20;101877.03;;;-4.23;89.80
54806;BME280;62866;55.776;37.496;2022-11-28T05:09:45;101870.91;;;-4.22;90.03
54806;BME280;62866;55.776;37.496;2022-11-28T05:12:11;101878.72;;;-4.20;90.80
54806;BME280;62866;55.776;37.496;2022-11-28T05:14:36;101876.75;;;-4.12;90.37
54806;BME280;62866;55.776;37.496;2022-11-28T05:17:01;101877.50;;;-4.08;90.27
54806;BME280;62866;55.776;37.496;2022-11-28T05:19:27;101881.81;;;-4.07;89.81
54806;BME280;62866;55.776;37.496;2022-11-28T05:21:52;101873.63;;;-3.95;90.10
54806;BME280;62866;55.776;37.496;2022-11-28T05:24:18;101883.56;;;-4.08;89.40
54806;BME280;62866;55.776;37.496;2022-11-28T05:26:43;101887.78;;;-4.02;90.08
54806;BME280;62866;55.776;37.496;2022-11-28T05:29:08;101888.75;;;-4.06;90.15
54806;BME280;62866;55.776;37.496;2022-11-28T05:31:34;101887.81;;;-4.04;89.89
54806;BME280;62866;55.776;37.496;2022-11-28T05:33:59;101903.66;;;-4.10;90.04
54806;BME280;62866;55.776;37.496;2022-11-28T05:36:24;101907.84;;;-4.04;90.21
54806;BME280;62866;55.776;37.496;2022-11-28T05:38:50;101900.97;;;-4.07;90.27
54806;BME280;62866;55.776;37.496;2022-11-28T05:41:22;101900.69;;;-3.98;90.12
54806;BME280;62866;55.776;37.496;2022-11-28T05:43:48;101915.66;;;-4.03;89.52
54806;BME280;62866;55.776;37.496;2022-11-28T05:46:13;101919.16;;;-4.04;89.80
54806;BME280;62866;55.776;37.496;2022-11-28T05:48:39;101920.88;;;-4.03;89.69
54806;BME280;62866;55.776;37.496;2022-11-28T05:51:04;101926.22;;;-4.07;89.98
54806;BME280;62866;55.776;37.496;2022-11-28T05:53:30;101929.69;;;-4.07;90.05
54806;BME280;62866;55.776;37.496;2022-11-28T05:55:55;101923.25;;;-3.94;90.30
54806;BME280;62866;55.776;37.496;2022-11-28T05:58:21;101920.47;;;-3.89;89.35
54806;BME280;62866;55.776;37.496;2022-11-28T06:00:46;101921.25;;;-3.86;89.72
54806;BME280;62866;55.776;37.496;2022-11-28T06:03:15;101921.25;;;-3.86;89.43
54806;BME280;62866;55.776;37.496;2022-11-28T06:05:41;101918.56;;;-3.84;88.70
54806;BME280;62866;55.776;37.496;2022-11-28T06:08:07;101920.22;;;-3.80;88.60
54806;BME280;62866;55.776;37.496;2022-11-28T06:10:33;101927.28;;;-3.84;88.81
54806;BME280;62866;55.776;37.496;2022-11-28T06:12:59;101930.97;;;-3.91;89.56
54806;BME280;62866;55.776;37.496;2022-11-28T06:15:24;101924.03;;;-3.92;89.71
54806;BME280;62866;55.776;37.496;2022-11-28T06:17:50;101924.00;;;-3.90;89.77
54806;BME280;62866;55.776;37.496;2022-11-28T06:20:15;101921.44;;;-3.93;89.49
54806;BME280;62866;55.776;37.496;2022-11-28T06:22:40;101927.38;;;-3.87;89.90
54806;BME280;62866;55.776;37.496;2022-11-28T06:25:08;101933.47;;;-3.86;90.21
54806;BME280;62866;55.776;37.496;2022-11-28T06:27:34;101923.69;;;-3.79;89.64
54806;BME280;62866;55.776;37.496;2022-11-28T06:29:59;101934.81;;;-3.73;89.75
54806;BME280;62866;55.776;37.496;2022-11-28T06:32:24;101934.88;;;-3.76;89.32
54806;BME280;62866;55.776;37.496;2022-11-28T06:34:50;101927.03;;;-3.76;89.37
54806;BME280;62866;55.776;37.496;2022-11-28T06:37:15;101931.28;;;-3.72;89.02
54806;BME280;62866;55.776;37.496;2022-11-28T06:39:41;101934.53;;;-3.64;88.68
54806;BME280;62866;55.776;37.496;2022-11-28T06:42:06;101930.88;;;-3.58;88.75
54806;BME280;62866;55.776;37.496;2022-11-28T06:44:31;101930.75;;;-3.54;88.16
54806;BME280;62866;55.776;37.496;2022-11-28T06:46:57;101935.06;;;-3.53;87.27
54806;BME280;62866;55.776;37.496;2022-11-28T06:49:22;101935.06;;;-3.53;87.79
54806;BME280;62866;55.776;37.496;2022-11-28T06:51:47;101924.47;;;-3.48;88.38
54806;BME280;62866;55.776;37.496;2022-11-28T06:54:13;101925.34;;;-3.49;87.66
54806;BME280;62866;55.776;37.496;2022-11-28T06:56:39;101926.09;;;-3.44;87.69
54806;BME280;62866;55.776;37.496;2022-11-28T06:59:04;101936.31;;;-3.36;86.82
54806;BME280;62866;55.776;37.496;2022-11-28T07:01:30;101940.69;;;-3.37;85.51
54806;BME280;62866;55.776;37.496;2022-11-28T07:03:56;101939.72;;;-3.34;84.81
54806;BME280;62866;55.776;37.496;2022-11-28T07:06:23;101946.50;;;-3.27;84.16
54806;BME280;62866;55.776;37.496;2022-11-28T07:08:48;101936.03;;;-3.27;83.52
54806;BME280;62866;55.776;37.496;2022-11-28T07:11:15;101934.41;;;-3.31;82.70
54806;BME280;62866;55.776;37.496;2022-11-28T07:13:41;101940.66;;;-3.35;83.10
54806;BME280;62866;55.776;37.496;2022-11-28T07:16:07;101944.19;;;-3.38;83.47
54806;BME280;62866;55.776;37.496;2022-11-28T07:18:36;101949.44;;;-3.38;83.37
54806;BME280;62866;55.776;37.496;2022-11-28T07:21:01;101945.28;;;-3.45;84.16
54806;BME280;62866;55.776;37.496;2022-11-28T07:23:26;101940.84;;;-3.43;84.91
54806;BME280;62866;55.776;37.496;2022-11-28T07:25:56;101944.31;;;-3.42;85.81
54806;BME280;62866;55.776;37.496;2022-11-28T07:28:22;101945.25;;;-3.43;86.63
54806;BME280;62866;55.776;37.496;2022-11-28T07:30:47;101943.66;;;-3.49;86.44
54806;BME280;62866;55.776;37.496;2022-11-28T07:33:13;101943.81;;;-3.54;87.33
54806;BME280;62866;55.776;37.496;2022-11-28T07:35:38;101951.69;;;-3.55;87.46
54806;BME280;62866;55.776;37.496;2022-11-28T07:38:03;101937.41;;;-3.43;87.30
54806;BME280;62866;55.776;37.496;2022-11-28T07:40:29;101950.66;;;-3.50;86.82
54806;BME280;62866;55.776;37.496;2022-11-28T07:42:54;101956.75;;;-3.49;86.98
54806;BME280;62866;55.776;37.496;2022-11-28T07:45:23;101958.66;;;-3.54;87.48
54806;BME280;62866;55.776;37.496;2022-11-28T07:47:48;101961.88;;;-3.46;87.35
54806;BME280;62866;55.776;37.496;2022-11-28T07:50:13;101954.25;;;-3.26;85.68
54806;BME280;62866;55.776;37.496;2022-11-28T07:52:39;101960.78;;;-3.39;85.86
54806;BME280;62866;55.776;37.496;2022-11-28T07:55:04;101965.25;;;-3.42;86.17
54806;BME280;62866;55.776;37.496;2022-11-28T07:57:30;101958.03;;;-3.34;86.08
54806;BME280;62866;55.776;37.496;2022-11-28T07:59:55;101955.41;;;-3.34;85.74
54806;BME280;62866;55.776;37.496;2022-11-28T08:02:21;101953.09;;;-3.43;85.62
54806;BME280;62866;55.776;37.496;2022-11-28T08:04:46;101961.03;;;-3.47;85.86
54806;BME280;62866;55.776;37.496;2022-11-28T08:07:12;101963.72;;;-3.50;86.03
54806;BME280;62866;55.776;37.496;2022-11-28T08:09:37;101973.56;;;-3.58;86.91
54806;BME280;62866;55.776;37.496;2022-11-28T08:12:02;101970.78;;;-3.52;86.95
54806;BME280;62866;55.776;37.496;2022-11-28T08:14:28;101970.44;;;-3.41;86.92
54806;BME280;62866;55.776;37.496;2022-11-28T08:16:53;101973.31;;;-3.50;87.15
54806;BME280;62866;55.776;37.496;2022-11-28T08:19:18;101977.66;;;-3.49;87.06
54806;BME280;62866;55.776;37.496;2022-11-28T08:21:44;101981.00;;;-3.44;87.56
54806;BME280;62866;55.776;37.496;2022-11-28T08:24:10;101977.66;;;-3.49;87.31
54806;BME280;62866;55.776;37.496;2022-11-28T08:26:35;101978.31;;;-3.42;86.55
54806;BME280;62866;55.776;37.496;2022-11-28T08:29:01;101988.91;;;-3.46;86.88
54806;BME280;62866;55.776;37.496;2022-11-28T08:31:30;101987.59;;;-3.60;86.70
54806;BME280;62866;55.776;37.496;2022-11-28T08:33:57;101988.53;;;-3.63;86.91
54806;BME280;62866;55.776;37.496;2022-11-28T08:36:22;101981.75;;;-3.68;87.57
54806;BME280;62866;55.776;37.496;2022-11-28T08:38:48;101984.19;;;-3.64;87.75
54806;BME280;62866;55.776;37.496;2022-11-28T08:41:22;101990.22;;;-3.60;87.72
54806;BME280;62866;55.776;37.496;2022-11-28T08:43:48;101989.19;;;-3.56;86.79
54806;BME280;62866;55.776;37.496;2022-11-28T08:46:14;101996.34;;;-3.61;86.52
54806;BME280;62866;55.776;37.496;2022-11-28T08:48:40;101994.34;;;-3.53;86.26
54806;BME280;62866;55.776;37.496;2022-11-28T08:51:07;102005.59;;;-3.51;85.71
54806;BME280;62866;55.776;37.496;2022-11-28T08:53:34;102003.13;;;-3.56;85.07
54806;BME280;62866;55.776;37.496;2022-11-28T08:55:59;101999.00;;;-3.63;85.36
54806;BME280;62866;55.776;37.496;2022-11-28T08:58:25;102002.66;;;-3.68;85.68
54806;BME280;62866;55.776;37.496;2022-11-28T09:00:50;102005.06;;;-3.62;86.25
54806;BME280;62866;55.776;37.496;2022-11-28T09:03:16;101997.34;;;-3.67;86.21
54806;BME280;62866;55.776;37.496;2022-11-28T09:05:43;101996.50;;;-3.67;85.95
54806;BME280;62866;55.776;37.496;2022-11-28T09:08:12;102002.31;;;-3.58;86.05
54806;BME280;62866;55.776;37.496;2022-11-28T09:10:38;102008.28;;;-3.53;85.33
54806;BME280;62866;55.776;37.496;2022-11-28T09:13:04;101995.66;;;-3.38;84.66
54806;BME280;62866;55.776;37.496;2022-11-28T09:15:30;101991.75;;;-3.53;84.85
54806;BME280;62866;55.776;37.496;2022-11-28T09:17:55;102002.19;;;-3.53;84.73
54806;BME280;62866;55.776;37.496;2022-11-28T09:20:20;102004.78;;;-3.52;84.98
54806;BME280;62866;55.776;37.496;2022-11-28T09:22:46;101998.72;;;-3.54;84.93
54806;BME280;62866;55.776;37.496;2022-11-28T09:25:12;102003.13;;;-3.56;85.37
54806;BME280;62866;55.776;37.496;2022-11-28T09:27:37;101992.47;;;-3.50;85.19
54806;BME280;62866;55.776;37.496;2022-11-28T09:30:03;101995.84;;;-3.45;85.10
54806;BME280;62866;55.776;37.496;2022-11-28T09:32:28;102000.09;;;-3.42;84.89
54806;BME280;62866;55.776;37.496;2022-11-28T09:34:54;102003.25;;;-3.31;83.31
54806;BME280;62866;55.776;37.496;2022-11-28T09:37:19;101985.16;;;-3.37;82.46
54806;BME280;62866;55.776;37.496;2022-11-28T09:39:44;101999.25;;;-3.42;82.70
54806;BME280;62866;55.776;37.496;2022-11-28T09:45:01;101987.38;;;-3.53;83.32
54806;BME280;62866;55.776;37.496;2022-11-28T09:47:28;101995.69;;;-3.69;83.73
54806;BME280;62866;55.776;37.496;2022-11-28T09:52:27;101999.69;;;-3.58;83.27
54806;BME280;62866;55.776;37.496;2022-11-28T09:55:02;101999.81;;;-3.61;83.21
54806;BME280;62866;55.776;37.496;2022-11-28T09:57:46;102004.06;;;-3.58;83.52
54806;BME280;62866;55.776;37.496;2022-11-28T10:00:16;102008.50;;;-3.60;84.02
54806;BME280;62866;55.776;37.496;2022-11-28T10:02:47;102007.59;;;-3.59;84.19
54806;BME280;62866;55.776;37.496;2022-11-28T10:05:25;102013.44;;;-3.51;83.87
54806;BME280;62866;55.776;37.496;2022-11-28T10:10:50;102001.38;;;-3.55;82.72
54806;BME280;62866;55.776;37.496;2022-11-28T10:13:21;102006.59;;;-3.55;83.77
54806;BME280;62866;55.776;37.496;2022-11-28T10:15:51;102005.66;;;-3.53;84.19
54806;BME280;62866;55.776;37.496;2022-11-28T10:18:30;101991.41;;;-3.42;83.69
54806;BME280;62866;55.776;37.496;2022-11-28T10:20:59;101994.09;;;-3.44;83.22
54806;BME280;62866;55.776;37.496;2022-11-28T10:25:56;101995.69;;;-3.40;83.99
54806;BME280;62866;55.776;37.496;2022-11-28T10:28:36;101996.78;;;-3.47;83.76
54806;BME280;62866;55.776;37.496;2022-11-28T10:31:05;101999.34;;;-3.46;84.01
54806;BME280;62866;55.776;37.496;2022-11-28T10:33:36;101993.94;;;-3.39;84.56
54806;BME280;62866;55.776;37.496;2022-11-28T10:36:05;101996.63;;;-3.42;84.58
54806;BME280;62866;55.776;37.496;2022-11-28T10:38:32;102000.22;;;-3.45;84.20
54806;BME280;62866;55.776;37.496;2022-11-28T10:46:29;101989.41;;;-3.34;83.00
54806;BME280;62866;55.776;37.496;2022-11-28T10:49:02;101993.97;;;-3.41;82.49
54806;BME280;62866;55.776;37.496;2022-11-28T11:01:48;101996.50;;;-3.38;81.46
54806;BME280;62866;55.776;37.496;2022-11-28T11:04:19;101996.69;;;-3.44;81.35
54806;BME280;62866;55.776;37.496;2022-11-28T11:06:48;101993.31;;;-3.48;81.79
54806;BME280;62866;55.776;37.496;2022-11-28T11:09:21;102008.22;;;-3.51;81.88
54806;BME280;62866;55.776;37.496;2022-11-28T11:11:50;101998.63;;;-3.51;81.68
54806;BME280;62866;55.776;37.496;2022-11-28T11:14:24;102004.88;;;-3.56;81.41
54806;BME280;62866;55.776;37.496;2022-11-28T11:16:56;102004.22;;;-3.63;81.80
54806;BME280;62866;55.776;37.496;2022-11-28T11:24:29;102012.53;;;-3.50;82.68
54806;BME280;62866;55.776;37.496;2022-11-28T11:27:01;102004.78;;;-3.52;81.83
54806;BME280;62866;55.776;37.496;2022-11-28T11:31:52;102005.47;;;-3.47;81.92
54806;BME280;62866;55.776;37.496;2022-11-28T11:34:19;102014.16;;;-3.45;80.85
54806;BME280;62866;55.776;37.496;2022-11-28T11:36:45;102015.97;;;-3.48;80.07
54806;BME280;62866;55.776;37.496;2022-11-28T11:41:40;102005.34;;;-3.42;80.52
54806;BME280;62866;55.776;37.496;2022-11-28T11:46:53;102006.75;;;-3.30;78.55
54806;BME280;62866;55.776;37.496;2022-11-28T11:49:38;102019.81;;;-3.30;78.39
54806;BME280;62866;55.776;37.496;2022-11-28T11:52:05;102015.03;;;-3.46;77.30
54806;BME280;62866;55.776;37.496;2022-11-28T11:54:31;102018.59;;;-3.48;77.78
54806;BME280;62866;55.776;37.496;2022-11-28T11:56:56;102028.13;;;-3.46;78.25
54806;BME280;62866;55.776;37.496;2022-11-28T12:01:48;102030.97;;;-3.53;78.93
54806;BME280;62866;55.776;37.496;2022-11-28T12:04:21;102027.06;;;-3.40;78.18
54806;BME280;62866;55.776;37.496;2022-11-28T12:06:49;102022.84;;;-3.44;78.33
54806;BME280;62866;55.776;37.496;2022-11-28T12:09:26;102025.47;;;-3.44;77.53
54806;BME280;62866;55.776;37.496;2022-11-28T12:11:58;102020.56;;;-3.56;78.69
54806;BME280;62866;55.776;37.496;2022-11-28T12:14:30;102031.94;;;-3.57;78.65
54806;BME280;62866;55.776;37.496;2022-11-28T12:22:21;102030.09;;;-3.54;79.17
54806;BME280;62866;55.776;37.496;2022-11-28T12:25:03;102034.84;;;-3.68;79.00
54806;BME280;62866;55.776;37.496;2022-11-28T12:30:23;102039.13;;;-3.65;79.64
54806;BME280;62866;55.776;37.496;2022-11-28T12:35:18;102028.13;;;-3.76;80.62
54806;BME280;62866;55.776;37.496;2022-11-28T12:50:58;102046.69;;;-3.86;81.49
54806;BME280;62866;55.776;37.496;2022-11-28T12:53:40;102055.50;;;-3.90;81.75
54806;BME280;62866;55.776;37.496;2022-11-28T13:14:07;102064.47;;;-4.00;83.04
54806;BME280;62866;55.776;37.496;2022-11-28T13:16:49;102057.47;;;-3.98;82.78
54806;BME280;62866;55.776;37.496;2022-11-28T13:19:26;102057.63;;;-4.04;83.04
54806;BME280;62866;55.776;37.496;2022-11-28T13:22:00;102058.47;;;-4.02;82.89
54806;BME280;62866;55.776;37.496;2022-11-28T13:32:39;102051.56;;;-4.04;82.38
54806;BME280;62866;55.776;37.496;2022-11-28T13:35:15;102055.56;;;-3.93;82.23
54806;BME280;62866;55.776;37.496;2022-11-28T13:37:48;102066.22;;;-4.00;82.96
54806;BME280;62866;55.776;37.496;2022-11-28T13:47:45;102067.53;;;-4.16;83.27
54806;BME280;62866;55.776;37.496;2022-11-28T13:55:39;102070.00;;;-4.10;83.07
54806;BME280;62866;55.776;37.496;2022-11-28T13:58:09;102072.66;;;-4.12;82.55
54806;BME280;62866;55.776;37.496;2022-11-28T14:00:35;102073.06;;;-4.27;83.26
54806;BME280;62866;55.776;37.496;2022-11-28T14:03:00;102078.28;;;-4.27;83.88
54806;BME280;62866;55.776;37.496;2022-11-28T14:05:35;102083.44;;;-4.26;84.29
54806;BME280;62866;55.776;37.496;2022-11-28T14:08:02;102085.94;;;-4.21;83.67
54806;BME280;62866;55.776;37.496;2022-11-28T14:27:00;102094.78;;;-4.27;83.32
54806;BME280;62866;55.776;37.496;2022-11-28T14:29:31;102105.41;;;-4.34;83.31
54806;BME280;62866;55.776;37.496;2022-11-28T14:31:58;102105.47;;;-4.36;83.00
54806;BME280;62866;55.776;37.496;2022-11-28T14:39:53;102116.22;;;-4.49;83.70
54806;BME280;62866;55.776;37.496;2022-11-28T14:44:54;102103.13;;;-4.48;83.49
54806;BME280;62866;55.776;37.496;2022-11-28T14:52:24;102093.72;;;-4.53;83.21
54806;BME280;62866;55.776;37.496;2022-11-28T14:54:50;102085.72;;;-4.47;81.77
54806;BME280;62866;55.776;37.496;2022-11-28T14:59:42;102088.81;;;-4.32;79.47
54806;BME280;62866;55.776;37.496;2022-11-28T15:07:33;102096.88;;;-4.41;78.98
54806;BME280;62866;55.776;37.496;2022-11-28T15:10:09;102088.13;;;-4.38;79.63
54806;BME280;62866;55.776;37.496;2022-11-28T15:15:23;102097.00;;;-4.45;80.95
54806;BME280;62866;55.776;37.496;2022-11-28T15:17:48;102083.16;;;-4.49;81.40
54806;BME280;62866;55.776;37.496;2022-11-28T15:20:36;102094.06;;;-4.33;80.82
54806;BME280;62866;55.776;37.496;2022-11-28T15:23:04;102097.75;;;-4.42;81.17
54806;BME280;62866;55.776;37.496;2022-11-28T15:25:30;102095.25;;;-4.45;81.50
54806;BME280;62866;55.776;37.496;2022-11-28T15:28:13;102093.50;;;-4.44;81.71
54806;BME280;62866;55.776;37.496;2022-11-28T15:30:46;102095.28;;;-4.46;82.10
54806;BME280;62866;55.776;37.496;2022-11-28T15:33:12;102098.91;;;-4.52;82.43
54806;BME280;62866;55.776;37.496;2022-11-28T15:35:38;102095.25;;;-4.45;82.81
54806;BME280;62866;55.776;37.496;2022-11-28T15:38:04;102099.66;;;-4.48;82.96
54806;BME280;62866;55.776;37.496;2022-11-28T15:40:33;102097.94;;;-4.49;82.93
54806;BME280;62866;55.776;37.496;2022-11-28T15:43:00;102099.31;;;-4.35;83.84
54806;BME280;62866;55.776;37.496;2022-11-28T15:45:31;102099.19;;;-4.29;83.43
54806;BME280;62866;55.776;37.496;2022-11-28T15:47:59;102092.25;;;-4.30;83.69
54806;BME280;62866;55.776;37.496;2022-11-28T15:50:26;102106.66;;;-4.49;83.77
54806;BME280;62866;55.776;37.496;2022-11-28T15:52:59;102112.94;;;-4.57;83.81
54806;BME280;62866;55.776;37.496;2022-11-28T15:55:25;102102.44;;;-4.54;84.36
54806;BME280;62866;55.776;37.496;2022-11-28T15:58:07;102102.75;;;-4.33;85.12
54806;BME280;62866;55.776;37.496;2022-11-28T16:00:33;102107.06;;;-4.30;85.26
54806;BME280;62866;55.776;37.496;2022-11-28T16:02:58;102102.13;;;-4.42;86.04
54806;BME280;62866;55.776;37.496;2022-11-28T16:05:24;102105.72;;;-4.46;86.24